Time;durP1;ratioP1;P1;durP2;ratioP2;P2;SDS_P1;SDS_P2;PMS_P1;PMS_P2;Temp;Humidity;BMP_temperature;BMP_pressure;BME280_temperature;BME280_humidity;BME280_pressure;Samples;Min_cycle;Max_cycle;Signal;HPM_P1;HPM_P2
2022/06/17 00:00:24;;;;;;;;;19.67;17.00;;;;;23.55;100.00;101671.91;5038286;28;45704;-79
2022/06/17 00:02:50;;;;;;;;;17.00;16.33;;;;;23.52;100.00;101672.41;5009576;28;45436;-78
2022/06/17 00:05:15;;;;;;;;;18.33;15.67;;;;;23.48;100.00;101669.34;5036785;28;45400;-79
2022/06/17 00:07:42;;;;;;;;;22.33;18.33;;;;;23.44;100.00;101660.66;5039440;28;45072;-77
2022/06/17 00:10:21;;;;;;;;;12.67;12.67;;;;;23.39;100.00;101669.00;5020946;28;45551;-75
2022/06/17 00:12:46;;;;;;;;;16.67;15.00;;;;;23.30;100.00;101656.66;5040213;28;45886;-79
2022/06/17 00:15:13;;;;;;;;;12.33;11.33;;;;;23.35;100.00;101673.47;5038944;28;45455;-77
2022/06/17 00:17:41;;;;;;;;;14.33;11.33;;;;;23.21;100.00;101649.91;5038727;28;45715;-78
2022/06/17 00:20:15;;;;;;;;;13.33;12.33;;;;;23.25;100.00;101665.88;5008361;28;47710;-81
2022/06/17 00:22:43;;;;;;;;;9.33;9.00;;;;;23.27;100.00;101669.25;5020798;28;44809;-77
2022/06/17 00:25:24;;;;;;;;;13.00;10.00;;;;;23.23;100.00;101665.31;5020730;28;45449;-79
2022/06/17 00:27:50;;;;;;;;;11.67;10.67;;;;;23.21;100.00;101663.91;5027683;28;45417;-78
2022/06/17 00:30:18;;;;;;;;;11.67;11.00;;;;;23.21;100.00;101672.28;5009015;28;47552;-79
2022/06/17 00:32:43;;;;;;;;;10.00;10.00;;;;;23.20;100.00;101673.41;5035425;28;45843;-77
2022/06/17 00:35:10;;;;;;;;;12.67;11.67;;;;;23.18;100.00;101668.06;5030297;28;45324;-78
2022/06/17 00:37:36;;;;;;;;;11.67;9.67;;;;;23.14;100.00;101663.28;5040823;28;45698;-80
2022/06/17 00:40:06;;;;;;;;;13.00;11.67;;;;;23.04;100.00;101650.91;5041843;28;45558;-77
2022/06/17 00:42:32;;;;;;;;;10.00;9.67;;;;;23.12;100.00;101665.53;5038165;28;45444;-76
2022/06/17 00:45:11;;;;;;;;;11.33;11.33;;;;;23.02;100.00;101649.47;5030517;28;45891;-77
2022/06/17 00:47:44;;;;;;;;;11.67;10.67;;;;;23.08;100.00;101670.78;5028437;28;45737;-77
2022/06/17 00:50:37;;;;;;;;;11.00;10.00;;;;;23.05;100.00;101669.38;5042381;28;45723;-76
2022/06/17 00:53:19;;;;;;;;;12.33;11.33;;;;;23.03;100.00;101671.59;5031503;28;45301;-78
2022/06/17 00:55:59;;;;;;;;;11.67;10.00;;;;;23.01;100.00;101667.38;5041201;28;45835;-77
2022/06/17 00:58:30;;;;;;;;;15.67;14.00;;;;;23.00;100.00;101674.09;5038288;28;45778;-77
2022/06/17 01:00:59;;;;;;;;;20.00;14.33;;;;;22.97;100.00;101669.03;5032418;28;46466;-76
2022/06/17 01:03:36;;;;;;;;;12.67;12.67;;;;;22.93;100.00;101677.13;5022159;28;45675;-78
2022/06/17 01:06:14;;;;;;;;;11.33;11.33;;;;;22.86;100.00;101662.53;5042137;28;45135;-80
2022/06/17 01:11:38;;;;;;;;;11.67;11.67;;;;;22.89;100.00;101673.19;5042408;28;45249;-76
2022/06/17 01:14:06;;;;;;;;;11.00;11.00;;;;;22.84;100.00;101676.78;5025181;28;45332;-77
2022/06/17 01:16:38;;;;;;;;;19.33;15.33;;;;;22.86;100.00;101684.91;5022243;28;45408;-77
2022/06/17 01:19:23;;;;;;;;;12.67;11.67;;;;;22.82;100.00;101681.81;5039662;28;45481;-79
2022/06/17 01:21:57;;;;;;;;;13.00;13.00;;;;;22.80;100.00;101685.97;5042653;28;45702;-76
2022/06/17 01:24:24;;;;;;;;;13.00;12.00;;;;;22.77;100.00;101679.00;5025594;28;45750;-77
2022/06/17 01:26:49;;;;;;;;;11.67;11.67;;;;;22.79;100.00;101689.91;5041928;28;45351;-75
2022/06/17 01:29:16;;;;;;;;;16.67;14.00;;;;;22.67;100.00;101673.31;5038743;28;45464;-78
2022/06/17 01:31:49;;;;;;;;;11.67;11.67;;;;;22.67;100.00;101681.69;5035556;28;46844;-77
2022/06/17 01:34:17;;;;;;;;;12.67;11.67;;;;;22.72;100.00;101690.13;5018532;28;45407;-79
2022/06/17 01:36:43;;;;;;;;;11.00;9.33;;;;;22.59;100.00;101671.88;5040650;28;45314;-79
2022/06/17 01:39:11;;;;;;;;;13.67;12.00;;;;;22.68;100.00;101686.16;5021372;28;46030;-75
2022/06/17 01:41:37;;;;;;;;;15.33;14.33;;;;;22.65;100.00;101687.56;5019783;28;45364;-78
2022/06/17 01:44:23;;;;;;;;;11.67;11.67;;;;;22.60;100.00;101695.91;5039120;28;45439;-80
2022/06/17 01:46:53;;;;;;;;;14.00;12.33;;;;;22.59;100.00;101685.84;5034870;28;45318;-80
2022/06/17 01:49:26;;;;;;;;;13.00;10.67;;;;;22.56;100.00;101691.97;5034752;28;45537;-78
2022/06/17 01:52:08;;;;;;;;;12.33;12.33;;;;;22.53;100.00;101710.09;5006030;28;47598;-78
2022/06/17 01:54:46;;;;;;;;;14.33;11.00;;;;;22.52;100.00;101715.97;5041518;28;45433;-80
2022/06/17 01:57:16;;;;;;;;;13.33;13.00;;;;;22.47;100.00;101716.78;5048920;28;45718;-78
2022/06/17 01:59:55;;;;;;;;;12.33;11.67;;;;;22.38;100.00;101696.84;5036835;28;45392;-76
2022/06/17 02:02:23;;;;;;;;;12.33;11.67;;;;;22.42;100.00;101713.06;5042607;28;45546;-77
2022/06/17 02:04:57;;;;;;;;;17.67;14.00;;;;;22.37;100.00;101717.50;5037661;28;45988;-77
2022/06/17 02:07:28;;;;;;;;;13.33;13.33;;;;;22.36;100.00;101726.97;5036235;28;45785;-80
2022/06/17 02:09:53;;;;;;;;;14.33;13.67;;;;;22.35;100.00;101727.25;5023632;28;47229;-78
2022/06/17 02:12:21;;;;;;;;;14.00;12.67;;;;;22.29;100.00;101720.75;5017534;28;47592;-78
2022/06/17 02:14:48;;;;;;;;;11.67;11.67;;;;;22.21;100.00;101708.06;5011851;28;45423;-77
2022/06/17 02:17:14;;;;;;;;;12.33;11.00;;;;;22.25;100.00;101727.97;5043506;28;45785;-76
2022/06/17 02:19:43;;;;;;;;;16.00;13.00;;;;;22.22;100.00;101722.91;5024985;28;47015;-79
2022/06/17 02:22:19;;;;;;;;;11.67;10.67;;;;;22.21;100.00;101732.41;5042793;28;45421;-79
2022/06/17 02:24:49;;;;;;;;;11.67;10.67;;;;;22.19;100.00;101740.22;5024230;28;45148;-77
2022/06/17 02:27:15;;;;;;;;;10.33;9.33;;;;;22.16;100.00;101735.16;5024880;28;45515;-77
2022/06/17 02:29:43;;;;;;;;;15.00;11.67;;;;;22.10;100.00;101727.81;5034229;28;45355;-79
2022/06/17 02:32:10;;;;;;;;;11.00;11.00;;;;;22.12;100.00;101737.59;5042819;28;45320;-80
2022/06/17 02:34:44;;;;;;;;;13.00;9.67;;;;;22.10;100.00;101745.41;5023601;28;45467;-78
2022/06/17 02:37:14;;;;;;;;;14.33;14.33;;;;;22.06;100.00;101738.66;5031215;28;45387;-77
2022/06/17 02:39:48;;;;;;;;;12.67;12.33;;;;;22.08;100.00;101741.19;5022813;28;47002;-78
2022/06/17 02:42:20;;;;;;;;;11.67;11.67;;;;;22.04;100.00;101738.91;5040032;28;45620;-80
2022/06/17 02:44:48;;;;;;;;;11.67;11.67;;;;;22.02;100.00;101738.34;5045294;28;45731;-80
2022/06/17 02:47:14;;;;;;;;;13.67;11.33;;;;;22.00;100.00;101748.91;5031764;28;45308;-80
2022/06/17 02:49:42;;;;;;;;;17.33;12.67;;;;;21.99;100.00;101746.38;5034482;28;45542;-81
2022/06/17 02:52:15;;;;;;;;;13.00;10.67;;;;;21.96;100.00;101739.41;5038061;28;45914;-82
2022/06/17 02:54:44;;;;;;;;;14.67;13.00;;;;;21.88;100.00;101733.44;5019591;28;45526;-79
2022/06/17 02:57:19;;;;;;;;;12.00;10.67;;;;;21.93;100.00;101739.06;5039857;28;45577;-77
2022/06/17 02:59:53;;;;;;;;;12.33;11.33;;;;;21.89;100.00;101738.75;5035969;28;45788;-76
2022/06/17 03:02:25;;;;;;;;;12.00;12.00;;;;;21.88;100.00;101739.84;5022066;28;46604;-78
2022/06/17 03:04:53;;;;;;;;;12.00;11.00;;;;;21.85;100.00;101737.56;5026480;28;45490;-78
2022/06/17 03:07:20;;;;;;;;;13.67;12.67;;;;;21.85;100.00;101737.56;5042739;28;45808;-78
2022/06/17 03:09:47;;;;;;;;;9.67;9.33;;;;;21.82;100.00;101738.94;5042016;28;45434;-77
2022/06/17 03:12:18;;;;;;;;;13.67;11.67;;;;;21.80;100.00;101729.97;5040310;28;45717;-77
2022/06/17 03:15:02;;;;;;;;;9.33;8.67;;;;;21.77;100.00;101722.13;5040809;28;45396;-77
2022/06/17 03:17:30;;;;;;;;;11.67;11.00;;;;;21.78;100.00;101717.38;5043083;28;45284;-75
2022/06/17 03:19:58;;;;;;;;;11.00;11.00;;;;;21.76;100.00;101720.44;5042224;28;44742;-77
2022/06/17 03:22:25;;;;;;;;;10.33;10.33;;;;;21.71;100.00;101725.97;5020352;28;47821;-78
2022/06/17 03:25:04;;;;;;;;;13.00;12.00;;;;;21.73;100.00;101725.72;5022095;28;45929;-79
2022/06/17 03:27:38;;;;;;;;;14.33;12.00;;;;;21.69;100.00;101723.44;5041564;28;45880;-77
2022/06/17 03:30:05;;;;;;;;;14.00;10.67;;;;;21.58;100.00;101702.06;5042563;28;45390;-82
2022/06/17 03:32:35;;;;;;;;;11.67;10.67;;;;;21.63;100.00;101710.53;5048146;28;46992;-78
2022/06/17 03:35:01;;;;;;;;;10.33;10.00;;;;;21.63;100.00;101704.94;5045859;28;45473;-78
2022/06/17 03:37:39;;;;;;;;;13.33;10.33;;;;;21.62;100.00;101700.44;5043400;28;45707;-77
2022/06/17 03:40:17;;;;;;;;;12.67;10.00;;;;;21.60;100.00;101694.28;5017840;28;45699;-77
2022/06/17 03:43:16;;;;;;;;;11.00;11.00;;;;;21.55;100.00;101671.88;5023152;28;47125;-77
2022/06/17 03:46:00;;;;;;;;;10.67;10.67;;;;;21.57;100.00;101707.91;5023873;28;45327;-78
2022/06/17 03:48:35;;;;;;;;;14.33;12.33;;;;;21.56;100.00;101728.53;5034850;28;44852;-79
2022/06/17 03:51:01;;;;;;;;;12.00;12.00;;;;;21.56;100.00;101737.78;5006123;28;46684;-77
2022/06/17 03:53:33;;;;;;;;;12.33;11.67;;;;;21.48;100.00;101721.44;5031444;28;46026;-78
2022/06/17 03:56:07;;;;;;;;;12.67;11.00;;;;;21.59;100.00;101744.81;5036627;28;45415;-78
2022/06/17 03:58:36;;;;;;;;;11.00;9.67;;;;;21.58;100.00;101755.09;5041575;28;45569;-78
2022/06/17 04:01:23;;;;;;;;;14.67;14.67;;;;;21.60;100.00;101747.34;5023082;28;45719;-78
2022/06/17 04:03:53;;;;;;;;;12.67;12.33;;;;;21.62;100.00;101750.69;5033320;28;45383;-79
2022/06/17 04:06:26;;;;;;;;;15.33;11.00;;;;;21.63;100.00;101740.38;5026904;28;45408;-79
2022/06/17 04:09:06;;;;;;;;;12.33;12.33;;;;;21.62;100.00;101736.75;5033335;28;47051;-79
2022/06/17 04:12:02;;;;;;;;;11.67;11.67;;;;;21.69;100.00;101751.34;5038226;28;45403;-79
2022/06/17 04:14:46;;;;;;;;;15.67;13.00;;;;;21.74;100.00;101741.38;5041239;28;46605;-80
2022/06/17 04:17:17;;;;;;;;;15.33;14.33;;;;;21.79;100.00;101735.81;5026746;28;45446;-78
2022/06/17 04:19:45;;;;;;;;;12.67;10.67;;;;;21.84;100.00;101736.75;5040661;28;45708;-78
2022/06/17 04:22:25;;;;;;;;;14.00;12.67;;;;;21.92;100.00;101745.78;5041395;28;45465;-78
2022/06/17 04:25:02;;;;;;;;;19.33;14.67;;;;;21.97;100.00;101735.47;5040056;28;45411;-80
2022/06/17 04:27:56;;;;;;;;;12.67;12.33;;;;;22.13;100.00;101730.09;5039747;28;45488;-81
2022/06/17 04:30:20;;;;;;;;;15.33;14.33;;;;;22.27;100.00;101734.13;5040668;28;45505;-79
2022/06/17 04:32:50;;;;;;;;;18.00;14.00;;;;;22.45;100.00;101732.09;5038812;28;45434;-79
2022/06/17 04:35:15;;;;;;;;;17.00;13.33;;;;;22.65;100.00;101735.09;5029442;28;46994;-80
2022/06/17 04:37:44;;;;;;;;;16.00;12.67;;;;;22.90;100.00;101736.41;5034535;28;45418;-80
2022/06/17 04:40:25;;;;;;;;;16.33;12.33;;;;;23.13;100.00;101734.34;5036933;28;45666;-82
2022/06/17 04:42:55;;;;;;;;;18.33;14.67;;;;;23.45;100.00;101742.69;5031028;28;45631;-79
2022/06/17 04:45:26;;;;;;;;;17.33;12.67;;;;;23.73;100.00;101729.38;5035124;28;45476;-77
2022/06/17 04:47:51;;;;;;;;;13.33;12.67;;;;;24.25;100.00;101738.81;5040531;28;45522;-81
2022/06/17 04:50:22;;;;;;;;;14.67;14.33;;;;;24.69;100.00;101738.34;5039376;28;45339;-79
2022/06/17 04:52:51;;;;;;;;;16.67;13.33;;;;;25.04;100.00;101731.00;5006787;28;45757;-80
2022/06/17 04:55:25;;;;;;;;;15.33;12.00;;;;;25.43;100.00;101747.22;5049915;28;46073;-79
2022/06/17 04:57:50;;;;;;;;;15.33;12.67;;;;;25.77;99.79;101740.94;5050155;28;44832;-79
2022/06/17 05:00:23;;;;;;;;;16.00;12.33;;;;;26.08;98.09;101741.66;5047282;28;46022;-78
2022/06/17 05:02:49;;;;;;;;;14.33;13.33;;;;;26.47;95.96;101745.63;5043506;28;45914;-79
2022/06/17 05:05:39;;;;;;;;;12.67;12.67;;;;;26.93;93.35;101739.66;5028503;28;47030;-77
2022/06/17 05:08:25;;;;;;;;;15.67;15.67;;;;;27.35;90.09;101740.13;5039803;28;45748;-77
2022/06/17 05:10:58;;;;;;;;;14.33;13.33;;;;;27.75;87.11;101734.28;5024550;28;45289;-78
2022/06/17 05:13:54;;;;;;;;;15.33;14.33;;;;;28.07;86.07;101741.19;5036481;28;45656;-78
2022/06/17 05:16:22;;;;;;;;;16.00;14.00;;;;;28.47;83.27;101736.91;4997171;28;45530;-78
2022/06/17 05:18:48;;;;;;;;;15.33;14.67;;;;;28.83;81.36;101727.06;5021913;28;45463;-76
2022/06/17 05:21:18;;;;;;;;;16.00;14.67;;;;;29.25;79.60;101733.66;5022169;28;45753;-80
2022/06/17 05:23:44;;;;;;;;;14.00;14.00;;;;;29.58;77.20;101717.47;5024026;28;46000;-77
2022/06/17 05:26:10;;;;;;;;;16.33;14.00;;;;;29.99;75.54;101715.75;5042690;28;45969;-81
2022/06/17 05:28:35;;;;;;;;;13.00;11.00;;;;;30.37;73.25;101717.41;5043384;28;45400;-76
2022/06/17 05:31:01;;;;;;;;;17.33;14.67;;;;;30.75;71.35;101723.56;5020732;28;45883;-77
2022/06/17 05:33:28;;;;;;;;;12.33;12.33;;;;;31.14;69.33;101716.31;5042312;28;45468;-79
2022/06/17 05:35:54;;;;;;;;;13.33;11.33;;;;;31.52;67.38;101712.94;5042311;28;45411;-80
2022/06/17 05:38:19;;;;;;;;;16.33;15.33;;;;;31.98;65.26;101702.25;5042303;28;45810;-81
2022/06/17 05:40:46;;;;;;;;;13.67;13.67;;;;;32.39;63.47;101694.44;5043395;28;45478;-79
2022/06/17 05:43:15;;;;;;;;;15.00;14.00;;;;;32.86;59.86;101705.06;5037721;28;45596;-78
2022/06/17 05:45:43;;;;;;;;;11.67;10.33;;;;;33.26;58.69;101707.63;5024201;28;47392;-78
2022/06/17 05:48:08;;;;;;;;;14.33;13.33;;;;;33.81;55.78;101708.72;5036810;28;45656;-78
2022/06/17 05:50:35;;;;;;;;;14.33;14.00;;;;;34.26;52.24;101712.94;5041241;28;45387;-82
2022/06/17 05:53:04;;;;;;;;;12.33;11.33;;;;;34.65;50.62;101713.56;5197489;22;46458;-73
2022/06/17 05:55:32;;;;;;;;;14.33;11.00;;;;;35.05;47.32;101683.63;5008515;28;45960;-74
2022/06/17 05:57:57;;;;;;;;;16.33;13.67;;;;;35.71;46.65;101711.97;5021133;28;45811;-77
2022/06/17 06:00:24;;;;;;;;;14.67;12.67;;;;;36.18;43.61;101709.75;5030654;28;45635;-74
2022/06/17 06:02:50;;;;;;;;;14.33;12.67;;;;;36.60;41.47;101709.38;5032110;28;46002;-75
2022/06/17 06:05:20;;;;;;;;;13.67;13.00;;;;;36.93;39.34;101711.13;5030916;28;47278;-76
2022/06/17 06:07:46;;;;;;;;;14.67;13.33;;;;;37.12;38.39;101713.25;5024941;28;45362;-75
2022/06/17 06:10:12;;;;;;;;;14.33;11.33;;;;;37.59;37.97;101709.56;5033724;28;45648;-78
2022/06/17 06:12:54;;;;;;;;;12.33;12.33;;;;;38.28;36.63;101693.94;5032132;28;46077;-78
2022/06/17 06:15:25;;;;;;;;;15.00;13.00;;;;;39.22;33.57;101695.78;5031557;28;45745;-80
2022/06/17 06:17:51;;;;;;;;;10.00;10.00;;;;;39.76;31.59;101677.38;5032458;28;47000;-76
2022/06/17 06:20:17;;;;;;;;;16.33;13.67;;;;;40.30;30.87;101686.72;5033156;28;45449;-76
2022/06/17 06:22:43;;;;;;;;;12.33;11.33;;;;;40.72;29.24;101659.72;5026917;28;45961;-75
2022/06/17 06:25:15;;;;;;;;;13.67;11.00;;;;;41.40;28.36;101678.84;5026304;28;45512;-78
2022/06/17 06:27:41;;;;;;;;;16.00;12.67;;;;;41.93;26.86;101669.69;5014467;28;45458;-77
2022/06/17 06:30:14;;;;;;;;;11.33;11.33;;;;;42.22;25.87;101661.22;5013885;28;45813;-76
2022/06/17 06:32:46;;;;;;;;;13.00;12.00;;;;;42.68;24.82;101682.75;5026382;28;45730;-75
2022/06/17 06:35:14;;;;;;;;;12.33;9.00;;;;;42.91;23.66;101670.84;5007754;28;47950;-77
2022/06/17 06:37:39;;;;;;;;;9.67;7.33;;;;;43.21;23.04;101655.22;5026064;28;45622;-76
2022/06/17 06:40:06;;;;;;;;;10.67;8.00;;;;;43.79;22.92;101675.31;5021619;28;45561;-77
2022/06/17 06:42:31;;;;;;;;;9.33;9.33;;;;;44.12;22.08;101676.84;5026572;28;46058;-77
2022/06/17 06:45:01;;;;;;;;;7.00;6.00;;;;;44.64;22.10;101672.50;5026838;28;46254;-78
2022/06/17 06:47:28;;;;;;;;;6.67;6.33;;;;;44.95;20.98;101659.03;5029745;28;44805;-81
2022/06/17 06:49:53;;;;;;;;;10.00;7.33;;;;;45.47;20.19;101673.47;5026195;28;46052;-76
2022/06/17 06:52:19;;;;;;;;;8.33;6.67;;;;;45.80;20.21;101668.16;5027558;28;46093;-77
2022/06/17 06:54:44;;;;;;;;;6.00;6.00;;;;;46.20;18.91;101676.38;5022745;28;46266;-77
2022/06/17 06:57:10;;;;;;;;;7.00;7.00;;;;;46.61;18.95;101668.78;5030086;28;45934;-77
2022/06/17 06:59:36;;;;;;;;;8.67;7.00;;;;;46.60;18.02;101650.53;5026942;28;45844;-74
2022/06/17 07:02:02;;;;;;;;;5.67;5.00;;;;;47.13;18.96;101677.06;5025780;28;45592;-74
2022/06/17 07:04:29;;;;;;;;;5.67;5.67;;;;;47.53;18.09;101665.53;5028302;28;46893;-74
2022/06/17 07:06:54;;;;;;;;;6.00;6.00;;;;;47.93;17.53;101688.00;5031265;28;45528;-75
2022/06/17 07:09:22;;;;;;;;;8.00;6.67;;;;;47.99;17.03;101686.22;5024113;28;45931;-74
2022/06/17 07:11:47;;;;;;;;;7.67;7.67;;;;;48.05;17.43;101678.59;5028864;28;45538;-75
2022/06/17 07:14:13;;;;;;;;;7.67;6.33;;;;;48.52;16.79;101686.31;5008045;28;46834;-75
2022/06/17 07:16:38;;;;;;;;;7.00;7.00;;;;;48.58;16.38;101681.63;5025551;28;45391;-75
2022/06/17 07:19:07;;;;;;;;;8.33;8.33;;;;;48.89;16.92;101695.84;5019647;28;45895;-75
2022/06/17 07:21:33;;;;;;;;;6.33;5.33;;;;;49.70;15.82;101696.22;5011541;28;46510;-75
2022/06/17 07:23:58;;;;;;;;;5.00;5.00;;;;;49.80;15.57;101685.53;5023184;28;45591;-73
2022/06/17 07:26:25;;;;;;;;;8.00;8.00;;;;;49.86;15.17;101669.09;5010683;28;45459;-73
2022/06/17 07:28:52;;;;;;;;;8.33;7.00;;;;;50.09;15.14;101690.53;5013283;28;45529;-74
2022/06/17 07:31:18;;;;;;;;;5.67;4.00;;;;;50.49;15.62;101681.38;5030604;28;45444;-73
2022/06/17 07:33:45;;;;;;;;;5.33;5.33;;;;;51.11;15.68;101689.75;5030250;28;46633;-74
2022/06/17 07:39:53;;;;;;;;;7.00;5.33;;;;;51.82;14.60;101697.25;5029514;28;45577;-74
2022/06/17 07:41:50;;;;;;;;;7.33;7.33;;;;;52.66;13.71;101703.56;5029359;28;45510;-74
2022/06/17 07:44:17;;;;;;;;;6.33;6.33;;;;;52.80;13.34;101711.00;5027459;28;45469;-75
2022/06/17 07:46:43;;;;;;;;;7.00;7.00;;;;;53.01;13.19;101713.00;5025307;28;45786;-75
2022/06/17 07:49:09;;;;;;;;;10.67;10.00;;;;;53.27;13.25;101715.66;5013518;28;45384;-73
2022/06/17 07:51:35;;;;;;;;;7.67;7.67;;;;;53.50;12.88;101725.13;5011205;28;46869;-77
2022/06/17 07:54:00;;;;;;;;;7.00;6.67;;;;;53.71;13.30;101718.31;5024971;28;45471;-76
2022/06/17 07:56:25;;;;;;;;;8.33;6.67;;;;;53.94;12.41;101725.63;5030438;28;45431;-77
2022/06/17 07:58:51;;;;;;;;;8.33;7.00;;;;;54.33;12.88;101745.66;5030434;28;45299;-77
2022/06/17 08:01:16;;;;;;;;;7.00;7.00;;;;;54.61;12.74;101739.66;5013370;28;45896;-76
2022/06/17 08:03:42;;;;;;;;;5.00;5.00;;;;;54.93;12.42;101735.09;5023580;28;45951;-77
2022/06/17 08:06:11;;;;;;;;;6.00;6.00;;;;;55.11;11.52;101734.19;5011114;28;45764;-78
2022/06/17 08:08:37;;;;;;;;;8.00;8.00;;;;;55.15;11.42;101740.72;5031963;28;45827;-77
2022/06/17 08:11:03;;;;;;;;;9.00;9.00;;;;;55.46;11.79;101738.69;5028733;28;45552;-77
2022/06/17 08:13:29;;;;;;;;;7.00;7.00;;;;;55.79;11.29;101734.81;5028028;28;46979;-76
2022/06/17 08:15:58;;;;;;;;;10.33;9.33;;;;;56.07;11.02;101741.28;5009461;28;45890;-77
2022/06/17 08:18:23;;;;;;;;;6.00;6.00;;;;;56.32;11.30;101742.00;5008980;28;45979;-77
2022/06/17 08:20:49;;;;;;;;;6.33;5.67;;;;;56.39;11.52;101710.00;5013627;28;45384;-77
2022/06/17 08:23:15;;;;;;;;;7.00;6.33;;;;;57.06;10.45;101741.03;5008788;28;47568;-77
2022/06/17 08:25:42;;;;;;;;;5.00;5.00;;;;;57.47;10.41;101720.41;5029021;28;45892;-76
2022/06/17 08:28:09;;;;;;;;;8.00;5.67;;;;;57.76;10.69;101722.34;5028006;28;45564;-75
2022/06/17 08:30:39;;;;;;;;;6.67;6.67;;;;;57.96;9.93;101721.50;5020322;28;45459;-77
2022/06/17 08:33:05;;;;;;;;;11.67;7.00;;;;;58.05;9.94;101734.44;5017161;28;45498;-77
2022/06/17 08:35:37;;;;;;;;;7.33;7.33;;;;;58.16;9.97;101725.72;5026989;28;45521;-76
2022/06/17 08:38:06;;;;;;;;;6.33;6.33;;;;;58.30;9.49;101723.97;5013422;28;45837;-76
2022/06/17 08:40:36;;;;;;;;;5.00;5.00;;;;;58.49;9.89;101716.34;5026686;28;46177;-76
2022/06/17 08:43:20;;;;;;;;;4.00;4.00;;;;;58.80;9.47;101711.72;5025627;28;46495;-77
2022/06/17 08:46:24;;;;;;;;;5.00;5.00;;;;;58.82;9.23;101705.28;5016008;28;45581;-77
2022/06/17 08:49:01;;;;;;;;;6.67;5.00;;;;;58.19;9.42;101704.00;4967388;28;45681;-76
2022/06/17 08:51:47;;;;;;;;;4.00;4.00;;;;;58.31;9.83;101702.75;4978524;28;45464;-76
2022/06/17 08:54:54;;;;;;;;;4.33;4.33;;;;;58.36;9.81;101698.22;4988589;28;47083;-76
2022/06/17 08:57:50;;;;;;;;;6.33;5.33;;;;;58.10;9.52;101701.22;5011454;28;45740;-77
2022/06/17 09:00:20;;;;;;;;;5.33;5.33;;;;;57.94;8.93;101706.44;5014918;28;45792;-76
2022/06/17 09:03:07;;;;;;;;;5.67;5.67;;;;;57.82;9.76;101698.81;5005894;28;45420;-76
2022/06/17 09:05:32;;;;;;;;;6.00;6.00;;;;;58.10;9.55;101704.19;5016104;28;46447;-78
2022/06/17 09:08:24;;;;;;;;;6.67;6.00;;;;;58.21;9.92;101697.56;5007384;28;45493;-76
2022/06/17 09:11:04;;;;;;;;;5.67;5.67;;;;;58.15;9.78;101695.41;4988526;28;45886;-77
2022/06/17 09:14:15;;;;;;;;;6.33;6.33;;;;;58.32;9.58;101691.75;5012534;28;45932;-77
2022/06/17 09:16:55;;;;;;;;;4.00;4.00;;;;;58.06;9.35;101691.78;5000210;28;46903;-77
2022/06/17 09:19:28;;;;;;;;;6.00;6.00;;;;;58.06;9.01;101686.69;4996855;28;46049;-78
2022/06/17 09:22:18;;;;;;;;;6.67;5.67;;;;;58.43;9.87;101691.06;4995592;28;45800;-76
2022/06/17 09:24:45;;;;;;;;;5.00;5.00;;;;;58.27;9.22;101689.56;5001133;28;45689;-73
2022/06/17 09:27:31;;;;;;;;;5.33;4.33;;;;;58.38;8.67;101689.66;4999766;28;47006;-74
2022/06/17 09:30:15;;;;;;;;;6.00;5.33;;;;;58.03;8.47;101669.22;5012222;28;45683;-74
2022/06/17 09:33:02;;;;;;;;;6.00;6.00;;;;;57.59;8.95;101672.00;5012912;28;45759;-74
2022/06/17 09:35:58;;;;;;;;;6.00;6.00;;;;;56.92;9.13;101672.78;5011909;28;45915;-74
2022/06/17 09:38:31;;;;;;;;;5.00;5.00;;;;;56.85;9.63;101679.09;5013465;28;46843;-73
2022/06/17 09:41:06;;;;;;;;;3.67;3.67;;;;;56.81;9.21;101660.81;5003707;28;45805;-74
2022/06/17 09:43:37;;;;;;;;;5.00;5.00;;;;;56.77;9.02;101683.78;5009580;28;45914;-73
2022/06/17 09:46:18;;;;;;;;;5.67;5.67;;;;;57.00;9.28;101669.38;5013245;28;45986;-74
2022/06/17 09:48:59;;;;;;;;;7.00;5.67;;;;;57.92;8.99;101670.72;4994401;28;47743;-75
2022/06/17 09:51:33;;;;;;;;;5.00;5.00;;;;;57.55;9.00;101682.41;5012560;28;45755;-74
2022/06/17 09:54:12;;;;;;;;;5.33;5.33;;;;;56.72;9.27;101658.81;5026834;28;45909;-77
2022/06/17 09:56:41;;;;;;;;;5.00;5.00;;;;;56.57;9.40;101661.03;5027304;28;45391;-76
2022/06/17 09:59:34;;;;;;;;;11.33;10.33;;;;;56.12;9.12;101669.06;5018986;28;45700;-78
2022/06/17 10:02:22;;;;;;;;;4.67;4.67;;;;;56.17;9.22;101671.31;5019118;28;45623;-77
2022/06/17 10:04:51;;;;;;;;;5.00;5.00;;;;;56.63;9.10;101669.91;5030202;28;45611;-78
2022/06/17 10:07:39;;;;;;;;;6.00;5.67;;;;;56.80;8.88;101670.97;5024691;28;45459;-77
2022/06/17 10:10:39;;;;;;;;;5.00;4.00;;;;;56.14;9.85;101670.19;5031112;28;45880;-77
2022/06/17 10:13:40;;;;;;;;;6.00;6.00;;;;;56.28;9.84;101676.59;5000387;28;45627;-76
2022/06/17 10:19:42;;;;;;;;;4.33;4.33;;;;;56.97;8.82;101673.38;5002081;28;45446;-73
2022/06/17 10:22:13;;;;;;;;;6.67;5.67;;;;;56.91;9.41;101665.28;5022953;28;46262;-75
2022/06/17 10:25:02;;;;;;;;;4.67;4.67;;;;;57.05;9.44;101654.72;5024869;28;45594;-73
2022/06/17 10:27:53;;;;;;;;;6.00;6.00;;;;;56.73;9.12;101651.59;5027205;28;46823;-75
2022/06/17 10:30:46;;;;;;;;;5.67;5.67;;;;;57.00;9.61;101660.53;5020051;28;46013;-73
2022/06/17 10:33:15;;;;;;;;;6.00;6.00;;;;;56.89;8.82;101658.25;5017077;28;47241;-73
2022/06/17 10:35:43;;;;;;;;;7.00;7.00;;;;;57.16;10.00;101668.78;5017328;28;45674;-73
2022/06/17 10:38:16;;;;;;;;;5.67;5.67;;;;;57.43;9.16;101660.81;5006158;28;45856;-74
2022/06/17 10:40:41;;;;;;;;;8.00;8.00;;;;;57.64;9.03;101664.53;5008106;28;46528;-74
2022/06/17 10:43:14;;;;;;;;;6.00;6.00;;;;;58.00;9.31;101671.06;5025137;28;45942;-73
2022/06/17 10:45:40;;;;;;;;;7.00;7.00;;;;;57.74;8.69;101659.28;5029496;28;45781;-74
2022/06/17 10:48:26;;;;;;;;;6.00;6.00;;;;;57.60;8.63;101673.63;5012208;28;45859;-73
2022/06/17 10:50:52;;;;;;;;;8.00;8.00;;;;;58.02;9.73;101674.31;5028978;28;46200;-73
2022/06/17 10:53:28;;;;;;;;;5.67;5.67;;;;;58.06;8.76;101668.16;5028086;28;45754;-75
2022/06/17 10:55:58;;;;;;;;;4.00;4.00;;;;;58.02;8.98;101667.56;5031117;28;46024;-76
2022/06/17 10:58:30;;;;;;;;;5.33;5.00;;;;;57.67;8.37;101669.38;5008740;28;45566;-76
2022/06/17 11:00:59;;;;;;;;;6.00;6.00;;;;;57.49;9.05;101675.63;5023275;28;46818;-77
2022/06/17 11:03:35;;;;;;;;;7.33;7.33;;;;;57.59;9.69;101677.91;5013955;28;47261;-78
2022/06/17 11:06:10;;;;;;;;;6.00;6.00;;;;;57.23;8.60;101673.47;5029925;28;45547;-76
2022/06/17 11:08:48;;;;;;;;;4.67;4.67;;;;;56.73;9.17;101674.34;5028924;28;45715;-74
2022/06/17 11:14:03;;;;;;;;;4.33;4.33;;;;;55.81;8.93;101661.56;5026781;28;45895;-74
2022/06/17 11:16:40;;;;;;;;;6.00;6.00;;;;;54.72;9.64;101653.94;5027910;28;45885;-73
2022/06/17 11:19:12;;;;;;;;;6.67;6.67;;;;;54.01;10.53;101664.97;5012908;28;45795;-74
2022/06/17 11:21:45;;;;;;;;;5.00;5.00;;;;;53.07;10.87;101634.84;5025611;28;45612;-72
2022/06/17 11:24:22;;;;;;;;;6.00;6.00;;;;;52.54;10.92;101656.34;5029132;28;47129;-74
2022/06/17 11:27:17;;;;;;;;;6.67;5.33;;;;;50.96;11.60;101650.63;5021131;28;46743;-77
2022/06/17 11:29:48;;;;;;;;;5.00;5.00;;;;;49.55;12.39;101643.34;5027866;28;45769;-76
2022/06/17 11:32:19;;;;;;;;;7.00;6.67;;;;;47.95;13.34;101653.47;5022414;28;45811;-76
2022/06/17 11:34:58;;;;;;;;;6.00;5.33;;;;;46.51;13.91;101648.13;5024440;28;46745;-76
2022/06/17 11:37:25;;;;;;;;;3.67;3.67;;;;;45.28;14.93;101645.91;5024245;28;45530;-76
2022/06/17 11:40:19;;;;;;;;;6.00;6.00;;;;;43.80;15.41;101643.09;5030963;28;45506;-75
2022/06/17 11:42:56;;;;;;;;;7.00;6.33;;;;;42.71;16.53;101618.47;5031068;28;46248;-77
2022/06/17 11:45:44;;;;;;;;;9.00;7.33;;;;;41.94;17.33;101628.13;5029406;28;47218;-77
2022/06/17 11:48:18;;;;;;;;;8.00;8.00;;;;;41.38;17.71;101629.44;5026525;28;45642;-75
2022/06/17 11:51:19;;;;;;;;;8.33;7.67;;;;;40.81;18.62;101618.25;5012529;28;45578;-77